createdAt,value
2018-02-08T00:00:48.970Z,13.40
2018-02-08T00:03:23.612Z,12.63
2018-02-08T00:05:58.338Z,12.80
2018-02-08T00:08:33.597Z,12.10
2018-02-08T00:11:08.034Z,12.47
2018-02-08T00:13:42.530Z,13.60
2018-02-08T00:16:17.394Z,12.17
2018-02-08T00:18:52.394Z,12.90
2018-02-08T00:21:27.797Z,12.43
2018-02-08T00:24:02.875Z,12.23
2018-02-08T00:26:37.997Z,12.70
2018-02-08T00:29:13.370Z,12.20
2018-02-08T00:31:48.873Z,13.43
2018-02-08T00:34:23.545Z,13.07
2018-02-08T00:36:59.006Z,13.95
2018-02-08T00:39:34.212Z,15.37
2018-02-08T00:42:09.403Z,15.57
2018-02-08T00:44:44.079Z,13.37
2018-02-08T00:47:19.629Z,12.18
2018-02-08T00:49:54.421Z,13.20
2018-02-08T00:52:29.162Z,13.15
2018-02-08T00:55:03.874Z,13.47
2018-02-08T00:57:38.560Z,12.57
2018-02-08T01:00:13.803Z,13.68
2018-02-08T01:02:48.894Z,15.00
2018-02-08T01:05:24.302Z,13.25
2018-02-08T01:07:59.182Z,12.50
2018-02-08T01:10:34.237Z,13.05
2018-02-08T01:13:09.396Z,13.33
2018-02-08T01:15:44.720Z,12.90
2018-02-08T01:18:19.534Z,13.52
2018-02-08T01:20:54.292Z,12.93
2018-02-08T01:23:29.588Z,13.57
2018-02-08T01:26:04.858Z,12.20
2018-02-08T01:28:40.133Z,13.93
2018-02-08T01:31:15.529Z,12.73
2018-02-08T01:33:50.857Z,12.68
2018-02-08T01:36:26.246Z,13.02
2018-02-08T01:39:01.265Z,12.45
2018-02-08T01:41:35.974Z,13.05
2018-02-08T01:44:10.926Z,12.55
2018-02-08T01:46:46.158Z,12.48
2018-02-08T01:49:32.442Z,12.30
2018-02-08T01:52:07.113Z,13.40
2018-02-08T01:54:42.534Z,14.00
2018-02-08T01:57:17.705Z,13.80
2018-02-08T01:59:53.222Z,15.10
2018-02-08T02:02:28.050Z,14.90
2018-02-08T02:05:03.702Z,13.50
2018-02-08T02:07:39.269Z,13.68
2018-02-08T02:10:14.801Z,14.15
2018-02-08T02:12:50.063Z,16.33
2018-02-08T02:15:25.376Z,13.70
2018-02-08T02:18:00.621Z,13.52
2018-02-08T02:20:35.482Z,12.40
2018-02-08T02:23:10.286Z,14.45
2018-02-08T02:25:45.674Z,11.75
2018-02-08T02:28:21.231Z,14.13
2018-02-08T02:30:56.666Z,13.10
2018-02-08T02:33:32.366Z,12.55
2018-02-08T02:36:07.755Z,13.02
2018-02-08T02:38:43.399Z,12.98
2018-02-08T02:41:18.590Z,12.77
2018-02-08T02:43:53.555Z,12.80
2018-02-08T02:46:29.097Z,11.85
2018-02-08T02:49:04.561Z,12.65
2018-02-08T02:51:40.886Z,12.73
2018-02-08T02:54:15.751Z,12.50
2018-02-08T02:56:50.885Z,14.00
2018-02-08T02:59:25.913Z,13.60
2018-02-08T03:02:01.229Z,13.55
2018-02-08T03:04:37.045Z,12.13
2018-02-08T03:07:12.606Z,12.75
2018-02-08T03:09:47.801Z,13.20
2018-02-08T03:12:22.612Z,12.50
2018-02-08T03:14:57.786Z,13.00
2018-02-08T03:17:33.382Z,11.95
2018-02-08T03:20:08.670Z,13.48
2018-02-08T03:22:43.754Z,13.07
2018-02-08T03:25:19.344Z,13.45
2018-02-08T03:27:54.925Z,13.93
2018-02-08T03:30:29.995Z,13.27
2018-02-08T03:33:05.837Z,14.00
2018-02-08T03:35:40.712Z,12.32
2018-02-08T03:38:15.746Z,13.35
2018-02-08T03:40:51.022Z,13.48
2018-02-08T03:43:26.655Z,14.87
2018-02-08T03:46:01.901Z,13.13
2018-02-08T03:48:36.594Z,14.98
2018-02-08T03:51:12.154Z,13.27
2018-02-08T03:53:47.927Z,13.35
2018-02-08T03:56:23.272Z,14.23
2018-02-08T03:58:58.897Z,14.45
2018-02-08T04:01:34.005Z,16.77
2018-02-08T04:04:09.275Z,15.13
2018-02-08T04:06:44.650Z,13.73
2018-02-08T04:09:19.585Z,14.82
2018-02-08T04:11:55.059Z,14.15
2018-02-08T04:14:30.133Z,15.48
2018-02-08T04:17:05.106Z,15.48
2018-02-08T04:19:40.458Z,15.65
2018-02-08T04:22:15.637Z,13.23
2018-02-08T04:24:51.001Z,13.98
2018-02-08T04:27:26.542Z,13.95
2018-02-08T04:30:02.138Z,14.55
2018-02-08T04:32:37.158Z,15.13
2018-02-08T04:35:11.962Z,15.95
2018-02-08T04:37:47.296Z,13.95
2018-02-08T04:53:51.907Z,11.40
2018-02-08T04:56:27.042Z,13.75
2018-02-08T04:59:01.947Z,14.45
2018-02-08T05:01:36.465Z,14.82
2018-02-08T05:04:11.462Z,14.90
2018-02-08T05:06:46.417Z,13.90
2018-02-08T05:09:21.434Z,13.48
2018-02-08T05:11:56.369Z,14.75
2018-02-08T05:14:31.310Z,14.82
2018-02-08T05:17:06.322Z,15.55
2018-02-08T05:19:41.918Z,14.48
2018-02-08T05:22:16.918Z,13.18
2018-02-08T05:24:51.837Z,15.70
2018-02-08T05:27:26.913Z,14.30
2018-02-08T05:30:01.845Z,13.85
2018-02-08T05:32:36.239Z,14.10
2018-02-08T05:35:11.163Z,14.05
2018-02-08T05:37:46.054Z,14.32
2018-02-08T05:40:20.857Z,12.80
2018-02-08T05:42:55.654Z,16.30
2018-02-08T05:45:30.594Z,16.02
2018-02-08T05:48:05.505Z,14.98
2018-02-08T05:50:40.375Z,13.18
2018-02-08T05:53:15.306Z,13.82
2018-02-08T05:55:50.173Z,15.15
2018-02-08T05:58:25.042Z,15.93
2018-02-08T06:00:59.948Z,16.45
2018-02-08T06:03:34.739Z,14.73
2018-02-08T06:06:09.138Z,15.80
2018-02-08T06:08:44.515Z,14.77
2018-02-08T06:11:19.425Z,14.60
2018-02-08T06:13:54.301Z,14.40
2018-02-08T06:16:29.277Z,15.35
2018-02-08T06:19:04.442Z,15.32
2018-02-08T06:21:39.375Z,13.60
2018-02-08T06:24:14.386Z,15.55
2018-02-08T06:26:49.127Z,14.80
2018-02-08T06:29:24.254Z,12.88
2018-02-08T06:31:59.070Z,14.87
2018-02-08T06:34:34.029Z,14.70
2018-02-08T06:37:09.141Z,16.48
2018-02-08T06:39:44.412Z,14.87
2018-02-08T06:42:19.385Z,13.48
2018-02-08T06:44:54.475Z,13.80
2018-02-08T06:47:29.500Z,14.57
2018-02-08T06:50:04.371Z,14.07
2018-02-08T06:52:40.246Z,13.32
2018-02-08T06:55:15.114Z,14.70
2018-02-08T06:57:50.158Z,15.07
2018-02-08T07:00:25.099Z,15.60
2018-02-08T07:03:00.042Z,13.60
2018-02-08T07:05:34.940Z,13.93
2018-02-08T07:08:10.791Z,14.15
2018-02-08T07:10:45.702Z,13.10
2018-02-08T07:13:20.921Z,12.43
2018-02-08T07:15:55.814Z,14.65
2018-02-08T07:18:31.742Z,16.37
2018-02-08T07:21:06.649Z,16.55
2018-02-08T07:23:41.431Z,15.57
2018-02-08T07:26:16.266Z,18.98
2018-02-08T07:28:50.986Z,16.60
2018-02-08T07:31:26.847Z,16.08
2018-02-08T07:34:01.923Z,16.05
2018-02-08T07:36:36.926Z,17.08
2018-02-08T07:39:12.006Z,17.37
2018-02-08T07:41:47.091Z,15.35
2018-02-08T07:44:21.896Z,16.23
2018-02-08T07:46:56.875Z,17.17
2018-02-08T07:49:31.838Z,17.33
2018-02-08T07:52:06.754Z,19.30
2018-02-08T07:54:41.549Z,17.73
2018-02-08T07:57:16.634Z,19.45
2018-02-08T07:59:51.363Z,17.87
2018-02-08T08:02:27.167Z,17.55
2018-02-08T08:05:02.146Z,16.50
2018-02-08T08:07:37.046Z,18.75
2018-02-08T08:10:11.827Z,19.27
2018-02-08T08:12:47.052Z,17.75
2018-02-08T08:15:21.780Z,17.67
2018-02-08T08:17:56.918Z,19.75
2018-02-08T08:20:31.651Z,20.17
2018-02-08T08:23:06.482Z,19.97
2018-02-08T08:25:41.455Z,19.50
2018-02-08T08:28:16.331Z,19.13
2018-02-08T08:30:51.301Z,21.00
2018-02-08T08:33:25.979Z,20.13
2018-02-08T08:36:01.042Z,19.23
2018-02-08T08:38:35.895Z,19.03
2018-02-08T08:41:10.713Z,20.27
2018-02-08T08:43:45.539Z,19.77
2018-02-08T08:46:20.667Z,20.53
2018-02-08T08:48:55.607Z,18.60
2018-02-08T08:51:30.762Z,20.37
2018-02-08T08:54:05.370Z,19.20
2018-02-08T08:56:40.486Z,20.87
2018-02-08T08:59:15.238Z,20.17
2018-02-08T09:01:50.245Z,21.60
2018-02-08T09:04:24.928Z,20.27
2018-02-08T09:06:59.623Z,19.73
2018-02-08T09:09:34.374Z,23.20
2018-02-08T09:12:09.369Z,26.63
2018-02-08T09:14:44.393Z,24.53
2018-02-08T09:17:19.270Z,22.17
2018-02-08T09:19:54.081Z,22.30
2018-02-08T09:22:28.881Z,22.93
2018-02-08T09:25:03.557Z,21.60
2018-02-08T09:27:38.257Z,22.20
2018-02-08T09:30:12.942Z,20.43
2018-02-08T09:32:47.713Z,21.33
2018-02-08T09:35:22.466Z,21.87
2018-02-08T09:37:57.260Z,22.90
2018-02-08T09:40:31.997Z,20.93
2018-02-08T09:43:06.855Z,20.00
2018-02-08T09:45:41.942Z,21.33
2018-02-08T09:48:16.377Z,21.60
2018-02-08T09:50:51.170Z,24.90
2018-02-08T09:53:26.153Z,21.80
2018-02-08T09:56:01.207Z,22.60
2018-02-08T09:58:35.961Z,21.83
2018-02-08T10:01:10.959Z,22.43
2018-02-08T10:03:45.829Z,23.30
2018-02-08T10:06:21.398Z,20.53
2018-02-08T10:08:55.833Z,21.70
2018-02-08T10:11:30.715Z,22.00
2018-02-08T10:14:05.818Z,22.33
2018-02-08T10:16:40.522Z,23.60
2018-02-08T10:19:15.603Z,23.90
2018-02-08T10:21:50.632Z,23.27
2018-02-08T10:24:25.677Z,21.43
2018-02-08T10:27:00.549Z,22.90
2018-02-08T10:29:35.642Z,22.00
2018-02-08T10:32:10.322Z,22.70
2018-02-08T10:34:45.190Z,21.47
2018-02-08T10:37:19.984Z,21.70
2018-02-08T10:39:54.880Z,23.33
2018-02-08T10:42:29.812Z,20.67
2018-02-08T10:45:04.432Z,20.80
2018-02-08T10:47:39.622Z,21.70
2018-02-08T10:50:14.515Z,23.57
2018-02-08T10:52:49.378Z,23.60
2018-02-08T10:55:24.361Z,23.50
2018-02-08T10:57:59.335Z,22.80
2018-02-08T11:00:34.318Z,23.63
2018-02-08T11:03:09.199Z,23.27
2018-02-08T11:05:44.098Z,23.53
2018-02-08T11:08:19.251Z,24.33
2018-02-08T11:10:54.164Z,23.87
2018-02-08T11:13:29.372Z,24.57
2018-02-08T11:16:04.345Z,25.67
2018-02-08T11:18:38.814Z,26.67
2018-02-08T11:21:13.890Z,26.90
2018-02-08T11:23:48.806Z,24.73
2018-02-08T11:26:23.665Z,25.13
2018-02-08T11:28:58.466Z,24.47
2018-02-08T11:31:33.434Z,24.43
2018-02-08T11:34:08.351Z,26.20
2018-02-08T11:36:43.397Z,24.20
2018-02-08T11:39:18.161Z,25.27
2018-02-08T11:41:53.095Z,25.80
2018-02-08T11:44:27.986Z,24.20
2018-02-08T11:47:03.057Z,24.93
2018-02-08T11:49:38.077Z,24.27
2018-02-08T11:52:13.149Z,26.20
2018-02-08T11:54:48.101Z,25.10
2018-02-08T11:57:23.005Z,26.03
2018-02-08T11:59:57.932Z,24.00
2018-02-08T12:02:32.840Z,24.90
2018-02-08T12:05:07.890Z,25.60
2018-02-08T12:07:42.377Z,25.40
2018-02-08T12:10:17.518Z,27.00
2018-02-08T12:12:52.487Z,26.20
2018-02-08T12:15:27.524Z,26.77
2018-02-08T12:18:02.693Z,26.50
2018-02-08T12:20:37.605Z,26.80
2018-02-08T12:23:12.798Z,27.63
2018-02-08T12:25:47.367Z,27.40
2018-02-08T12:28:22.042Z,28.80
2018-02-08T12:30:56.930Z,27.10
2018-02-08T12:33:31.463Z,27.03
2018-02-08T12:36:06.445Z,27.93
2018-02-08T12:38:41.354Z,28.20
2018-02-08T12:41:16.234Z,25.87
2018-02-08T12:43:51.029Z,27.20
2018-02-08T12:46:25.966Z,25.90
2018-02-08T12:49:00.837Z,27.70
2018-02-08T12:51:35.855Z,26.17
2018-02-08T12:54:10.822Z,27.87
2018-02-08T12:56:45.811Z,26.57
2018-02-08T12:59:20.848Z,25.87
2018-02-08T13:01:55.786Z,26.80
2018-02-08T13:04:30.486Z,28.60
2018-02-08T13:07:05.437Z,26.80
2018-02-08T13:09:40.419Z,28.00
2018-02-08T13:12:15.430Z,25.77
2018-02-08T13:14:50.398Z,26.93
2018-02-08T13:17:25.377Z,27.90
2018-02-08T13:20:00.357Z,28.00
2018-02-08T13:22:35.406Z,24.17
2018-02-08T13:25:10.234Z,26.97
2018-02-08T13:27:45.418Z,27.13
2018-02-08T13:30:20.401Z,25.50
2018-02-08T13:32:55.528Z,26.03
2018-02-08T13:35:30.754Z,27.50
2018-02-08T13:38:05.645Z,27.90
2018-02-08T13:40:45.003Z,26.87
2018-02-08T13:43:19.537Z,27.90
2018-02-08T13:45:54.706Z,26.43
2018-02-08T13:48:31.428Z,26.80
2018-02-08T14:04:39.013Z,26.60
2018-02-08T14:07:13.864Z,27.87
2018-02-08T14:09:48.634Z,27.30
2018-02-08T14:12:23.610Z,27.23
2018-02-08T14:14:58.576Z,27.03
2018-02-08T14:17:33.747Z,27.17
2018-02-08T14:20:08.842Z,28.00
2018-02-08T14:22:43.798Z,27.50
2018-02-08T14:25:18.561Z,27.60
2018-02-08T14:27:53.631Z,30.80
2018-02-08T14:30:28.561Z,26.87
2018-02-08T14:33:03.634Z,27.07
2018-02-08T14:35:38.765Z,27.93
2018-02-08T14:38:13.462Z,27.50
2018-02-08T14:40:48.223Z,27.10
2018-02-08T14:43:22.970Z,28.47
2018-02-08T14:45:57.878Z,27.90
2018-02-08T14:48:32.810Z,28.03
2018-02-08T14:51:07.778Z,27.47
2018-02-08T14:53:42.790Z,27.63
2018-02-08T14:56:17.730Z,28.50
2018-02-08T14:58:52.799Z,28.30
2018-02-08T15:01:27.617Z,26.30
2018-02-08T15:04:02.645Z,28.00
2018-02-08T15:06:37.734Z,27.33
2018-02-08T15:09:12.664Z,27.70
2018-02-08T15:11:47.624Z,28.03
2018-02-08T15:14:22.394Z,40.73
2018-02-08T15:16:57.282Z,35.70
2018-02-08T15:19:32.055Z,41.00
2018-02-08T15:22:07.194Z,33.87
2018-02-08T15:24:42.197Z,32.47
2018-02-08T15:27:17.195Z,32.00
2018-02-08T15:29:51.973Z,32.87
2018-02-08T15:32:26.920Z,34.53
2018-02-08T15:35:01.664Z,33.10
2018-02-08T15:37:36.665Z,29.27
2018-02-08T15:40:11.416Z,32.03
2018-02-08T15:42:46.334Z,31.13
2018-02-08T15:45:21.353Z,30.53
2018-02-08T15:47:56.202Z,36.60
2018-02-08T15:50:31.018Z,33.07
2018-02-08T15:53:05.870Z,33.27
2018-02-08T15:55:40.214Z,32.20
2018-02-08T15:58:15.108Z,31.20
2018-02-08T16:00:49.703Z,36.57
2018-02-08T16:03:24.542Z,37.30
2018-02-08T16:05:59.630Z,39.50
2018-02-08T16:08:34.437Z,30.60
2018-02-08T16:11:09.162Z,30.60
2018-02-08T16:13:43.932Z,30.33
2018-02-08T16:16:18.568Z,29.53
2018-02-08T16:18:53.455Z,30.97
2018-02-08T16:21:28.162Z,32.83
2018-02-08T16:24:02.963Z,31.40
2018-02-08T16:26:37.925Z,30.53
2018-02-08T16:29:12.694Z,30.10
2018-02-08T16:31:47.638Z,29.67
2018-02-08T16:34:22.526Z,31.23
2018-02-08T16:36:57.466Z,30.63
2018-02-08T16:39:32.375Z,29.17
2018-02-08T16:42:07.135Z,27.87
2018-02-08T16:44:42.068Z,28.83
2018-02-08T16:47:16.957Z,30.50
2018-02-08T16:49:51.726Z,29.20
2018-02-08T16:52:26.102Z,30.23
2018-02-08T16:55:01.108Z,31.33
2018-02-08T16:57:36.076Z,29.80
2018-02-08T17:00:10.788Z,28.93
2018-02-08T17:02:45.566Z,27.33
2018-02-08T17:05:20.197Z,27.80
2018-02-08T17:07:54.989Z,31.47
2018-02-08T17:10:29.870Z,28.17
2018-02-08T17:13:04.246Z,27.60
2018-02-08T17:15:39.227Z,50.47
2018-02-08T17:18:13.967Z,39.73
2018-02-08T17:20:48.713Z,33.17
2018-02-08T17:23:23.565Z,34.90
2018-02-08T17:25:58.382Z,33.43
2018-02-08T17:28:33.041Z,32.50
2018-02-08T17:31:07.828Z,31.33
2018-02-08T17:33:42.610Z,32.83
2018-02-08T17:36:17.385Z,31.70
2018-02-08T17:38:52.065Z,30.50
2018-02-08T17:41:27.137Z,31.40
2018-02-08T17:44:01.971Z,30.70
2018-02-08T17:46:36.764Z,33.33
2018-02-08T17:49:11.690Z,40.50
2018-02-08T17:51:46.302Z,33.07
2018-02-08T17:54:21.104Z,31.00
2018-02-08T17:56:56.124Z,31.60
2018-02-08T17:59:30.830Z,32.77
2018-02-08T18:02:05.653Z,32.77
2018-02-08T18:04:40.377Z,32.77
2018-02-08T18:07:15.269Z,34.97
2018-02-08T18:09:50.178Z,34.80
2018-02-08T18:12:24.982Z,38.10
2018-02-08T18:14:59.768Z,34.70
2018-02-08T18:17:34.764Z,32.67
2018-02-08T18:20:09.499Z,35.10
2018-02-08T18:22:44.395Z,34.80
2018-02-08T18:25:19.000Z,32.80
2018-02-08T18:27:53.782Z,34.23
2018-02-08T18:30:28.598Z,34.23
2018-02-08T18:33:03.320Z,36.37
2018-02-08T18:35:38.228Z,36.07
2018-02-08T18:38:13.115Z,34.60
2018-02-08T18:40:48.083Z,34.50
2018-02-08T18:43:22.865Z,41.17
2018-02-08T18:45:57.903Z,44.37
2018-02-08T18:48:32.586Z,43.30
2018-02-08T18:51:07.371Z,39.30
2018-02-08T18:53:42.261Z,38.50
2018-02-08T18:56:17.146Z,37.90
2018-02-08T18:58:52.435Z,35.23
2018-02-08T19:01:27.278Z,34.13
2018-02-08T19:04:02.015Z,36.63
2018-02-08T19:06:36.830Z,34.27
2018-02-08T19:09:11.489Z,35.70
2018-02-08T19:11:46.193Z,37.83
2018-02-08T19:14:21.042Z,35.70
2018-02-08T19:16:55.972Z,35.77
2018-02-08T19:19:30.817Z,35.63
2018-02-08T19:22:05.692Z,34.37
2018-02-08T19:24:40.558Z,31.80
2018-02-08T19:27:15.389Z,38.80
2018-02-08T19:29:50.124Z,32.70
2018-02-08T19:32:25.458Z,33.60
2018-02-08T19:35:00.398Z,34.73
2018-02-08T19:37:35.142Z,33.50
2018-02-08T19:40:09.968Z,34.70
2018-02-08T19:42:45.427Z,31.93
2018-02-08T19:45:20.112Z,35.43
2018-02-08T19:47:55.078Z,36.27
2018-02-08T19:50:29.559Z,35.00
2018-02-08T19:53:04.206Z,33.80
2018-02-08T19:55:39.314Z,34.17
2018-02-08T19:58:13.988Z,36.60
2018-02-08T20:00:48.983Z,34.80
2018-02-08T20:03:23.722Z,38.17
2018-02-08T20:05:58.841Z,37.30
2018-02-08T20:08:33.595Z,36.40
2018-02-08T20:11:08.419Z,35.37
2018-02-08T20:13:43.386Z,36.27
2018-02-08T20:16:18.074Z,37.53
2018-02-08T20:18:53.242Z,35.27
2018-02-08T20:21:28.203Z,36.60
2018-02-08T20:24:03.186Z,37.53
2018-02-08T20:26:38.010Z,36.10
2018-02-08T20:29:12.729Z,36.20
2018-02-08T20:31:47.324Z,37.43
2018-02-08T20:34:22.101Z,34.17
2018-02-08T20:37:01.738Z,36.20
2018-02-08T20:39:36.868Z,34.97
2018-02-08T20:42:17.094Z,35.50
2018-02-08T20:44:51.495Z,34.70
2018-02-08T20:47:26.513Z,36.47
2018-02-08T20:50:04.902Z,34.77
2018-02-08T20:52:39.275Z,36.90
2018-02-08T20:55:27.242Z,34.87
2018-02-08T20:58:11.122Z,33.13
2018-02-08T21:00:45.978Z,34.30
2018-02-08T21:03:21.309Z,33.57
2018-02-08T21:05:56.915Z,35.67
2018-02-08T21:08:31.977Z,34.90
2018-02-08T21:11:07.257Z,35.97
2018-02-08T21:13:42.211Z,33.70
2018-02-08T21:16:17.301Z,35.80
2018-02-08T21:18:52.320Z,33.97
2018-02-08T21:21:27.462Z,36.73
2018-02-08T21:24:02.089Z,37.90
2018-02-08T21:26:37.074Z,35.93
2018-02-08T21:29:12.378Z,36.63
2018-02-08T21:31:47.534Z,36.83
2018-02-08T21:34:22.507Z,36.40
2018-02-08T21:36:57.850Z,35.40
2018-02-08T21:39:32.525Z,37.10
2018-02-08T21:42:07.671Z,38.77
2018-02-08T21:44:42.814Z,36.40
2018-02-08T21:47:17.688Z,36.83
2018-02-08T21:49:52.752Z,35.67
2018-02-08T21:52:27.742Z,38.37
2018-02-08T21:55:03.108Z,36.07
2018-02-08T21:57:38.623Z,34.47
2018-02-08T22:00:13.550Z,34.57
2018-02-08T22:02:48.874Z,37.07
2018-02-08T22:05:23.616Z,39.07
2018-02-08T22:07:58.613Z,38.20
2018-02-08T22:10:33.836Z,37.23
2018-02-08T22:13:09.304Z,37.67
2018-02-08T22:15:44.435Z,35.37
2018-02-08T22:18:19.534Z,36.93
2018-02-08T22:20:54.515Z,36.87
2018-02-08T22:23:29.376Z,34.75
2018-02-08T22:26:04.402Z,37.27
2018-02-08T22:28:39.518Z,37.20
2018-02-08T22:31:14.881Z,36.92
2018-02-08T22:33:50.133Z,35.07
2018-02-08T22:36:25.618Z,34.97
2018-02-08T22:39:00.174Z,35.10
2018-02-08T22:41:35.445Z,40.30
2018-02-08T22:44:10.366Z,37.03
2018-02-08T22:46:45.501Z,35.07
2018-02-08T22:49:20.574Z,34.57
2018-02-08T22:51:56.174Z,36.15
2018-02-08T22:54:31.217Z,37.25
2018-02-08T22:57:06.358Z,37.57
2018-02-08T22:59:41.683Z,36.47
2018-02-08T23:02:16.383Z,34.80
2018-02-08T23:04:51.242Z,36.23
2018-02-08T23:07:26.218Z,35.25
2018-02-08T23:10:01.247Z,37.83
2018-02-08T23:12:36.346Z,35.05
2018-02-08T23:15:11.325Z,36.97
2018-02-08T23:17:45.695Z,36.27
2018-02-08T23:20:20.785Z,38.30
2018-02-08T23:22:55.473Z,37.00
2018-02-08T23:25:30.554Z,35.10
2018-02-08T23:28:05.343Z,38.00
2018-02-08T23:30:40.617Z,37.07
2018-02-08T23:33:15.790Z,37.83
2018-02-08T23:35:50.769Z,35.10
2018-02-08T23:38:25.773Z,35.10
2018-02-08T23:41:01.341Z,38.20
2018-02-08T23:43:36.499Z,36.20
2018-02-08T23:46:11.502Z,38.80
2018-02-08T23:48:46.506Z,36.77
2018-02-08T23:51:21.217Z,38.90
2018-02-08T23:53:56.393Z,39.00
2018-02-08T23:56:31.673Z,37.65
2018-02-08T23:59:06.366Z,37.13
